e-Mail: Password: Lost your password? Click here. - Register a new user

c h a v e z j u a r e z . c o m

Weather - Tiempo - Wetter - Temps

METAR DATA MMMX (Mexico City)

Mexico City / Licenci, Mexico (MMMX) 19-26N 099-06W
Oct 19, 2018 - 08:12 PM EDT / 2018.10.20 0012 UTC
Wind: from the W (270 degrees) at 8 MPH (7 KT):0
Visibility: 5 mile(s):0
Sky conditions: mostly cloudy
Weather: Cumulonimbus clouds observed
Temperature: 62 F (17 C)
Dew Point: 55 F (13 C)
Relative Humidity: 77%
Pressure (altimeter): 30.26 in. Hg (1024 hPa)
ob: MMMX 200012Z 27007KT 5SM BKN020CB BKN080 17/13 A3026 NOSIG RMK 8/360 HZY OCNL DROPS RAE05
cycle: 0

Mexico City

St. Prex




Current weather alarms for Switzerland


www.wetteralarm.ch